createdAt,value
2018-06-23T00:00:22.701Z,47.60
2018-06-23T00:02:51.751Z,47.50
2018-06-23T00:05:20.139Z,47.60
2018-06-23T00:07:49.135Z,47.50
2018-06-23T00:10:17.484Z,47.40
2018-06-23T00:12:46.359Z,47.30
2018-06-23T00:17:42.898Z,47.20
2018-06-23T00:20:11.245Z,47.00
2018-06-23T00:22:39.617Z,47.00
2018-06-23T00:25:07.981Z,47.00
2018-06-23T00:27:36.364Z,47.30
2018-06-23T00:30:04.728Z,48.50
2018-06-23T00:32:33.070Z,48.70
2018-06-23T00:37:30.116Z,48.70
2018-06-23T00:39:58.457Z,48.80
2018-06-23T00:42:26.801Z,49.30
2018-06-23T00:44:55.845Z,49.00
2018-06-23T00:47:24.149Z,49.60
2018-06-23T00:49:52.503Z,49.90
2018-06-23T00:52:21.438Z,50.00
2018-06-23T00:54:49.765Z,49.80
2018-06-23T00:57:18.133Z,49.50
2018-06-23T00:59:46.505Z,49.40
2018-06-23T01:02:14.915Z,49.30
2018-06-23T01:04:43.251Z,49.30
2018-06-23T01:07:11.629Z,49.40
2018-06-23T01:09:39.995Z,49.50
2018-06-23T01:12:08.367Z,49.70
2018-06-23T01:17:08.687Z,49.80
2018-06-23T01:19:37.087Z,49.80
2018-06-23T01:22:05.455Z,49.90
2018-06-23T01:24:33.805Z,50.00
2018-06-23T01:27:02.227Z,49.90
2018-06-23T01:29:31.397Z,49.90
2018-06-23T01:31:59.777Z,50.00
2018-06-23T01:34:28.314Z,50.20
2018-06-23T01:36:57.317Z,50.50
2018-06-23T01:39:25.867Z,50.60
2018-06-23T01:41:54.192Z,50.70
2018-06-23T01:44:22.551Z,50.90
2018-06-23T01:46:50.883Z,50.80
2018-06-23T01:51:47.477Z,50.70
2018-06-23T01:54:15.810Z,50.90
2018-06-23T01:56:44.144Z,51.20
2018-06-23T01:59:12.576Z,51.40
2018-06-23T02:01:40.955Z,51.30
2018-06-23T02:04:09.326Z,50.90
2018-06-23T02:06:37.728Z,51.50
2018-06-23T02:09:08.354Z,52.20
2018-06-23T02:11:36.699Z,52.10
2018-06-23T02:14:10.373Z,51.80
2018-06-23T02:16:44.045Z,51.20
2018-06-23T02:19:17.548Z,50.70
2018-06-23T02:21:51.231Z,51.00
2018-06-23T02:24:24.913Z,51.10
2018-06-23T02:26:58.644Z,51.00
2018-06-23T02:29:32.395Z,50.60
2018-06-23T02:32:06.067Z,50.30
2018-06-23T02:34:39.621Z,50.50
2018-06-23T02:37:07.957Z,50.90
2018-06-23T02:39:36.293Z,51.10
2018-06-23T02:47:00.757Z,50.40
2018-06-23T02:49:29.107Z,50.40
2018-06-23T02:51:57.433Z,50.40
2018-06-23T02:54:25.770Z,50.40
2018-06-23T02:56:54.121Z,50.60
2018-06-23T02:59:22.505Z,50.60
2018-06-23T03:01:50.990Z,50.60
2018-06-23T03:04:19.565Z,50.30
2018-06-23T03:06:48.197Z,50.10
2018-06-23T03:09:16.549Z,50.10
2018-06-23T03:11:44.896Z,50.40
2018-06-23T03:14:13.850Z,50.60
2018-06-23T03:16:42.182Z,51.30
2018-06-23T03:19:10.559Z,50.40
2018-06-23T03:21:38.873Z,50.20
2018-06-23T03:24:07.333Z,50.00
2018-06-23T03:26:35.683Z,50.40
2018-06-23T03:29:04.236Z,51.50
2018-06-23T03:31:32.608Z,51.40
2018-06-23T03:34:00.938Z,51.80
2018-06-23T03:41:25.569Z,51.50
2018-06-23T03:43:53.928Z,51.50
2018-06-23T03:46:22.234Z,51.60
2018-06-23T03:48:50.703Z,51.60
2018-06-23T03:51:19.019Z,51.60
2018-06-23T03:53:47.385Z,51.60
2018-06-23T03:56:15.871Z,51.60
2018-06-23T03:58:44.300Z,51.60
2018-06-23T04:01:12.631Z,51.60
2018-06-23T04:03:40.961Z,51.50
2018-06-23T04:06:09.313Z,51.60
2018-06-23T04:08:38.150Z,51.60
2018-06-23T04:11:07.126Z,51.70
2018-06-23T04:16:10.272Z,51.10
2018-06-23T04:18:42.881Z,51.00
2018-06-23T04:21:11.224Z,52.50
2018-06-23T04:23:39.596Z,52.60
2018-06-23T04:26:07.930Z,52.60
2018-06-23T04:28:36.252Z,52.70
2018-06-23T04:31:04.629Z,52.20
2018-06-23T04:33:32.992Z,52.20
2018-06-23T04:36:01.298Z,52.10
2018-06-23T04:38:29.674Z,52.00
2018-06-23T04:40:58.040Z,51.70
2018-06-23T04:43:27.112Z,51.60
2018-06-23T04:45:55.508Z,51.70
2018-06-23T04:48:23.940Z,51.70
2018-06-23T04:50:52.298Z,51.70
2018-06-23T04:53:20.627Z,51.70
2018-06-23T04:55:49.876Z,51.70
2018-06-23T04:58:18.217Z,52.20
2018-06-23T05:00:46.545Z,52.40
2018-06-23T05:03:14.934Z,52.30
2018-06-23T05:05:43.288Z,52.40
2018-06-23T05:08:11.681Z,52.50
2018-06-23T05:10:40.027Z,52.60
2018-06-23T05:13:08.353Z,52.70
2018-06-23T05:15:36.785Z,52.60
2018-06-23T05:18:05.208Z,52.90
2018-06-23T05:20:33.534Z,53.30
2018-06-23T05:23:02.358Z,53.30
2018-06-23T05:25:31.308Z,53.50
2018-06-23T05:27:59.659Z,53.60
2018-06-23T05:30:28.017Z,53.50
2018-06-23T05:32:56.359Z,53.50
2018-06-23T05:35:24.703Z,53.20
2018-06-23T05:37:53.040Z,52.60
2018-06-23T05:40:21.390Z,52.70
2018-06-23T05:42:49.733Z,52.80
2018-06-23T05:45:18.075Z,52.90
2018-06-23T05:47:46.432Z,52.50
2018-06-23T05:50:14.774Z,52.10
2018-06-23T05:52:43.125Z,52.00
2018-06-23T05:55:11.453Z,50.90
2018-06-23T05:57:39.789Z,50.70
2018-06-23T06:00:09.043Z,50.70
2018-06-23T06:02:38.143Z,51.20
2018-06-23T06:05:06.513Z,50.60
2018-06-23T06:07:35.188Z,50.20
2018-06-23T06:10:03.615Z,50.10
2018-06-23T06:12:32.112Z,49.80
2018-06-23T06:15:00.435Z,49.70
2018-06-23T06:17:32.727Z,49.50
2018-06-23T06:20:03.243Z,49.00
2018-06-23T06:22:34.853Z,49.40
2018-06-23T06:25:03.222Z,49.20
2018-06-23T06:27:31.663Z,49.40
2018-06-23T06:30:00.064Z,49.00
2018-06-23T06:32:28.813Z,47.80
2018-06-23T06:34:57.468Z,48.40
2018-06-23T06:37:25.930Z,48.10
2018-06-23T06:39:54.281Z,47.70
2018-06-23T06:42:22.657Z,47.20
2018-06-23T06:44:50.983Z,45.80
2018-06-23T06:47:20.128Z,43.70
2018-06-23T06:49:48.519Z,43.50
2018-06-23T06:52:17.815Z,42.60
2018-06-23T06:54:46.250Z,42.90
2018-06-23T06:57:14.656Z,43.20
2018-06-23T06:59:43.003Z,43.30
2018-06-23T07:02:12.561Z,42.90
2018-06-23T07:07:09.033Z,41.80
2018-06-23T07:09:37.438Z,41.70
2018-06-23T07:12:05.883Z,41.60
2018-06-23T07:14:34.237Z,41.50
2018-06-23T07:17:02.615Z,41.10
2018-06-23T07:19:31.074Z,41.00
2018-06-23T07:21:59.408Z,41.10
2018-06-23T07:24:27.833Z,41.70
2018-06-23T07:26:56.252Z,40.70
2018-06-23T07:31:53.478Z,39.50
2018-06-23T07:34:21.821Z,41.20
2018-06-23T07:36:50.321Z,40.80
2018-06-23T07:39:18.691Z,39.20
2018-06-23T07:44:15.286Z,38.80
2018-06-23T07:46:43.717Z,39.80
2018-06-23T07:49:12.083Z,38.20
2018-06-23T07:51:40.499Z,38.80
2018-06-23T07:54:08.875Z,37.80
2018-06-23T07:56:37.233Z,38.10
2018-06-23T07:59:05.623Z,37.20
2018-06-23T08:01:34.157Z,37.10
2018-06-23T08:04:02.412Z,35.20
2018-06-23T08:06:30.748Z,35.70
2018-06-23T08:08:59.115Z,35.80
2018-06-23T08:11:27.455Z,34.50
2018-06-23T08:13:55.863Z,36.60
2018-06-23T08:16:24.327Z,35.30
2018-06-23T08:18:52.683Z,36.80
2018-06-23T08:21:21.093Z,36.70
2018-06-23T08:23:49.417Z,37.60
2018-06-23T08:26:17.867Z,37.70
2018-06-23T08:28:46.133Z,38.20
2018-06-23T08:31:14.442Z,37.50
2018-06-23T08:33:42.889Z,36.70
2018-06-23T08:36:11.257Z,37.60
2018-06-23T08:38:39.621Z,37.20
2018-06-23T08:41:08.001Z,37.50
2018-06-23T08:43:36.409Z,36.50
2018-06-23T08:48:32.892Z,36.60
2018-06-23T08:51:01.262Z,36.70
2018-06-23T08:53:29.637Z,36.70
2018-06-23T08:55:57.957Z,38.20
2018-06-23T08:58:26.339Z,36.60
2018-06-23T09:00:54.691Z,36.80
2018-06-23T09:03:23.083Z,34.50
2018-06-23T09:05:51.597Z,34.90
2018-06-23T09:08:20.685Z,34.90
2018-06-23T09:10:49.039Z,35.00
2018-06-23T09:13:17.381Z,35.20
2018-06-23T09:20:41.950Z,32.80
2018-06-23T09:23:10.289Z,34.20
2018-06-23T09:28:07.712Z,32.40
2018-06-23T09:30:36.196Z,31.90
2018-06-23T09:33:04.514Z,30.40
2018-06-23T09:35:33.049Z,28.90
2018-06-23T09:38:01.419Z,29.70
2018-06-23T09:40:29.817Z,29.40
2018-06-23T09:42:58.147Z,29.00
2018-06-23T09:45:26.509Z,26.60
2018-06-23T09:47:54.901Z,28.70
2018-06-23T09:50:23.294Z,28.60
2018-06-23T09:52:51.772Z,30.20
2018-06-23T09:55:20.697Z,29.00
2018-06-23T09:57:49.136Z,27.00
2018-06-23T10:00:17.890Z,27.00
2018-06-23T10:02:47.468Z,27.40
2018-06-23T10:05:16.397Z,26.60
2018-06-23T10:07:44.755Z,26.10
2018-06-23T10:10:13.084Z,27.10
2018-06-23T10:12:41.445Z,26.60
2018-06-23T10:15:09.827Z,27.20
2018-06-23T10:17:38.165Z,27.10
2018-06-23T10:20:06.605Z,28.00
2018-06-23T10:22:34.948Z,27.30
2018-06-23T10:25:03.297Z,26.60
2018-06-23T10:27:31.675Z,26.90
2018-06-23T10:30:00.039Z,27.10
2018-06-23T10:32:28.520Z,25.60
2018-06-23T10:34:56.858Z,25.90
2018-06-23T10:37:25.260Z,26.70
2018-06-23T10:39:53.664Z,26.10
2018-06-23T10:42:22.029Z,25.90
2018-06-23T10:44:50.393Z,25.20
2018-06-23T10:47:18.738Z,25.40
2018-06-23T10:49:47.115Z,26.00
2018-06-23T10:52:15.510Z,26.40
2018-06-23T10:54:43.854Z,27.30
2018-06-23T10:57:12.250Z,28.40
2018-06-23T10:59:40.617Z,27.40
2018-06-23T11:02:09.174Z,27.70
2018-06-23T11:04:37.679Z,27.80
2018-06-23T11:07:06.284Z,26.40
2018-06-23T11:09:34.622Z,27.10
2018-06-23T11:12:03.008Z,26.50
2018-06-23T11:14:31.340Z,25.80
2018-06-23T11:16:59.761Z,26.30
2018-06-23T11:19:28.090Z,26.10
2018-06-23T11:21:56.502Z,26.10
2018-06-23T11:24:25.393Z,26.40
2018-06-23T11:26:53.786Z,27.20
2018-06-23T11:29:22.141Z,26.80
2018-06-23T11:31:51.118Z,26.30
2018-06-23T11:34:20.160Z,26.30
2018-06-23T11:36:48.470Z,26.80
2018-06-23T11:39:16.824Z,26.10
2018-06-23T11:41:45.204Z,25.70
2018-06-23T11:44:14.060Z,25.50
2018-06-23T11:46:42.460Z,24.70
2018-06-23T11:49:10.825Z,25.60
2018-06-23T11:51:39.163Z,25.10
2018-06-23T11:56:36.365Z,24.60
2018-06-23T11:59:04.776Z,25.30
2018-06-23T12:01:33.349Z,25.60
2018-06-23T12:04:01.712Z,25.20
2018-06-23T12:06:30.192Z,26.00
2018-06-23T12:08:58.510Z,24.50
2018-06-23T12:11:26.883Z,23.30
2018-06-23T12:13:55.287Z,23.80
2018-06-23T12:16:23.701Z,24.70
2018-06-23T12:18:52.068Z,25.20
2018-06-23T12:21:20.455Z,25.70
2018-06-23T12:23:48.858Z,25.50
2018-06-23T12:26:17.268Z,24.90
2018-06-23T12:28:45.619Z,25.20
2018-06-23T12:33:42.035Z,25.60
2018-06-23T12:36:10.403Z,25.00
2018-06-23T12:38:38.781Z,25.40
2018-06-23T12:41:07.137Z,24.80
2018-06-23T12:43:35.694Z,25.30
2018-06-23T12:46:04.060Z,24.70
2018-06-23T12:48:32.525Z,25.20
2018-06-23T12:51:00.792Z,25.20
2018-06-23T12:53:29.343Z,25.40
2018-06-23T12:55:58.330Z,25.50
2018-06-23T12:58:26.772Z,23.80
2018-06-23T13:00:55.133Z,23.70
2018-06-23T13:03:24.221Z,24.20
2018-06-23T13:05:52.601Z,24.40
2018-06-23T13:08:21.076Z,24.00
2018-06-23T13:10:49.408Z,24.00
2018-06-23T13:13:17.781Z,24.80
2018-06-23T13:15:46.151Z,24.40
2018-06-23T13:18:14.492Z,24.50
2018-06-23T13:20:43.622Z,25.20
2018-06-23T13:23:12.181Z,25.00
2018-06-23T13:25:40.636Z,25.60
2018-06-23T13:28:09.062Z,25.50
2018-06-23T13:30:37.359Z,25.10
2018-06-23T13:33:06.229Z,25.10
2018-06-23T13:38:03.367Z,26.40
2018-06-23T13:40:31.729Z,26.50
2018-06-23T13:43:00.074Z,26.90
2018-06-23T13:45:28.463Z,26.50
2018-06-23T13:47:56.831Z,26.80
2018-06-23T13:50:25.292Z,27.50
2018-06-23T13:52:53.669Z,27.00
2018-06-23T13:55:22.029Z,27.20
2018-06-23T13:57:50.386Z,27.10
2018-06-23T14:00:18.708Z,27.20
2018-06-23T14:02:47.076Z,27.60
2018-06-23T14:05:15.461Z,27.30
2018-06-23T14:07:43.834Z,27.50
2018-06-23T14:10:12.221Z,27.80
2018-06-23T14:12:40.585Z,27.60
2018-06-23T14:15:08.973Z,28.10
2018-06-23T14:17:37.329Z,28.30
2018-06-23T14:20:05.775Z,28.70
2018-06-23T14:22:34.196Z,29.10
2018-06-23T14:25:02.670Z,28.50
2018-06-23T14:27:31.159Z,28.20
2018-06-23T14:29:59.567Z,28.00
2018-06-23T14:32:28.588Z,27.20
2018-06-23T14:34:56.897Z,26.60
2018-06-23T14:37:25.251Z,26.70
2018-06-23T14:39:53.629Z,26.20
2018-06-23T14:42:21.972Z,27.10
2018-06-23T14:44:50.331Z,28.90
2018-06-23T14:47:18.965Z,28.00
2018-06-23T14:52:15.360Z,28.70
2018-06-23T14:54:43.693Z,28.40
2018-06-23T14:57:12.058Z,28.70
2018-06-23T14:59:41.309Z,28.00
2018-06-23T15:02:09.672Z,28.90
2018-06-23T15:04:38.368Z,28.70
2018-06-23T15:07:06.680Z,28.00
2018-06-23T15:09:46.389Z,27.60
2018-06-23T15:12:25.928Z,26.40
2018-06-23T15:14:54.311Z,25.70
2018-06-23T15:17:23.355Z,24.90
2018-06-23T15:19:51.709Z,25.70
2018-06-23T15:22:20.091Z,25.20
2018-06-23T15:24:48.491Z,24.30
2018-06-23T15:27:16.921Z,23.90
2018-06-23T15:29:45.355Z,25.20
2018-06-23T15:34:41.961Z,24.00
2018-06-23T15:37:10.379Z,23.80
2018-06-23T15:39:39.445Z,24.40
2018-06-23T15:42:07.823Z,23.70
2018-06-23T15:44:36.238Z,23.20
2018-06-23T15:47:04.990Z,23.10
2018-06-23T15:49:33.361Z,24.30
2018-06-23T15:52:01.766Z,24.60
2018-06-23T15:54:30.115Z,24.40
2018-06-23T15:56:58.463Z,24.80
2018-06-23T15:59:26.823Z,24.40
2018-06-23T16:04:23.543Z,24.60
2018-06-23T16:06:51.880Z,24.50
2018-06-23T16:09:20.261Z,24.10
2018-06-23T16:11:48.637Z,25.00
2018-06-23T16:14:17.017Z,24.50
2018-06-23T16:16:45.511Z,25.60
2018-06-23T16:19:13.907Z,25.60
2018-06-23T16:21:42.335Z,25.40
2018-06-23T16:24:10.729Z,24.80
2018-06-23T16:26:39.105Z,24.90
2018-06-23T16:29:07.486Z,24.40
2018-06-23T16:31:35.965Z,24.40
2018-06-23T16:34:04.331Z,25.20
2018-06-23T16:36:32.768Z,24.80
2018-06-23T16:39:01.257Z,24.90
2018-06-23T16:41:29.651Z,24.50
2018-06-23T16:43:58.696Z,24.90
2018-06-23T16:46:27.066Z,24.90
2018-06-23T16:48:55.461Z,25.50
2018-06-23T16:51:24.501Z,26.60
2018-06-23T16:53:52.876Z,26.70
2018-06-23T16:56:21.278Z,27.50
2018-06-23T16:58:49.671Z,26.60
2018-06-23T17:01:18.172Z,27.20
2018-06-23T17:03:47.077Z,26.50
2018-06-23T17:06:15.447Z,26.40
2018-06-23T17:08:43.809Z,26.70
2018-06-23T17:11:12.253Z,26.50
2018-06-23T17:13:40.601Z,26.40
2018-06-23T17:16:08.958Z,26.50
2018-06-23T17:18:37.979Z,26.50
2018-06-23T17:21:06.487Z,25.90
2018-06-23T17:23:34.855Z,26.70
2018-06-23T17:26:03.249Z,26.30
2018-06-23T17:28:31.611Z,26.30
2018-06-23T17:31:00.068Z,26.40
2018-06-23T17:33:28.440Z,25.90
2018-06-23T17:35:56.790Z,25.80
2018-06-23T17:38:25.187Z,26.80
2018-06-23T17:40:54.140Z,26.80
2018-06-23T17:43:22.589Z,27.00
2018-06-23T17:45:50.991Z,27.20
2018-06-23T17:48:19.441Z,27.50
2018-06-23T17:50:49.047Z,27.90
2018-06-23T17:53:17.412Z,28.10
2018-06-23T17:55:45.787Z,28.70
2018-06-23T17:58:14.148Z,28.70
2018-06-23T18:00:43.184Z,29.20
2018-06-23T18:03:11.553Z,29.40
2018-06-23T18:05:39.912Z,29.90
2018-06-23T18:08:08.305Z,30.00
2018-06-23T18:10:36.641Z,29.90
2018-06-23T18:13:05.123Z,30.10
2018-06-23T18:15:33.505Z,30.90
2018-06-23T18:20:29.942Z,30.40
2018-06-23T18:25:26.416Z,31.20
2018-06-23T18:27:54.718Z,31.30
2018-06-23T18:30:23.049Z,31.00
2018-06-23T18:32:51.416Z,31.20
2018-06-23T18:35:19.799Z,31.40
2018-06-23T18:37:48.120Z,31.50
2018-06-23T18:40:16.496Z,32.10
2018-06-23T18:42:44.848Z,31.90
2018-06-23T18:45:13.315Z,32.30
2018-06-23T18:47:41.677Z,33.00
2018-06-23T18:50:10.010Z,32.90
2018-06-23T18:52:38.348Z,33.00
2018-06-23T18:55:06.779Z,33.30
2018-06-23T18:57:35.140Z,33.40
2018-06-23T19:00:03.626Z,33.30
2018-06-23T19:02:31.980Z,32.40
2018-06-23T19:05:00.354Z,32.90
2018-06-23T19:07:28.782Z,33.40
2018-06-23T19:09:57.130Z,33.30
2018-06-23T19:12:25.482Z,33.20
2018-06-23T19:14:53.868Z,32.80
2018-06-23T19:17:22.240Z,33.00
2018-06-23T19:19:50.600Z,33.10
2018-06-23T19:22:19.035Z,33.40
2018-06-23T19:24:47.474Z,33.30
2018-06-23T19:27:15.831Z,33.80
2018-06-23T19:29:44.180Z,33.60
2018-06-23T19:32:12.530Z,33.30
2018-06-23T19:34:40.888Z,32.90
2018-06-23T19:37:09.276Z,33.40
2018-06-23T19:39:37.659Z,33.80
2018-06-23T19:42:06.068Z,33.80
2018-06-23T19:44:34.441Z,33.30
2018-06-23T19:47:02.823Z,33.50
2018-06-23T19:49:32.032Z,33.70
2018-06-23T19:52:00.407Z,33.90
2018-06-23T19:54:28.754Z,34.30
2018-06-23T19:56:57.106Z,34.70
2018-06-23T19:59:25.468Z,34.40
2018-06-23T20:01:53.872Z,34.70
2018-06-23T20:04:22.296Z,36.30
2018-06-23T20:06:50.608Z,35.70
2018-06-23T20:09:18.954Z,35.60
2018-06-23T20:11:47.324Z,35.80
2018-06-23T20:14:15.666Z,35.70
2018-06-23T20:16:43.999Z,35.40
2018-06-23T20:19:12.377Z,35.90
2018-06-23T20:21:40.720Z,36.30
2018-06-23T20:24:09.084Z,36.20
2018-06-23T20:26:37.472Z,36.70
2018-06-23T20:29:05.944Z,37.00
2018-06-23T20:34:02.314Z,36.90
2018-06-23T20:36:30.714Z,36.80
2018-06-23T20:38:59.066Z,36.70
2018-06-23T20:41:27.450Z,36.70
2018-06-23T20:43:55.814Z,37.00
2018-06-23T20:46:24.226Z,37.20
2018-06-23T20:48:52.618Z,36.60
2018-06-23T20:51:20.980Z,36.60
2018-06-23T20:53:49.319Z,36.90
2018-06-23T20:56:17.736Z,37.40
2018-06-23T20:58:46.088Z,37.50
2018-06-23T21:01:14.506Z,37.60
2018-06-23T21:03:42.990Z,37.60
2018-06-23T21:06:11.421Z,37.80
2018-06-23T21:08:39.784Z,37.80
2018-06-23T21:11:08.152Z,38.20
2018-06-23T21:13:36.489Z,38.00
2018-06-23T21:16:05.238Z,37.60
2018-06-23T21:18:33.615Z,38.00
2018-06-23T21:21:02.021Z,38.20
2018-06-23T21:23:30.404Z,38.30
2018-06-23T21:25:58.761Z,37.80
2018-06-23T21:28:27.119Z,38.00
2018-06-23T21:30:55.691Z,38.90
2018-06-23T21:33:24.189Z,39.80
2018-06-23T21:35:52.419Z,40.20
2018-06-23T21:38:20.769Z,40.70
2018-06-23T21:40:49.163Z,40.60
2018-06-23T21:43:17.528Z,40.60
2018-06-23T21:45:45.923Z,40.50
2018-06-23T21:48:14.363Z,40.70
2018-06-23T21:50:42.767Z,40.90
2018-06-23T21:53:11.206Z,41.10
2018-06-23T21:55:40.120Z,41.20
2018-06-23T22:03:09.303Z,41.90
2018-06-23T22:05:38.339Z,42.20
2018-06-23T22:08:07.655Z,42.40
2018-06-23T22:10:36.033Z,42.90
2018-06-23T22:13:04.843Z,41.60
2018-06-23T22:15:33.183Z,41.70
2018-06-23T22:18:01.527Z,41.60
2018-06-23T22:20:29.897Z,41.50
2018-06-23T22:22:58.269Z,41.60
2018-06-23T22:25:26.705Z,41.70
2018-06-23T22:27:55.099Z,42.10
2018-06-23T22:30:23.459Z,42.40
2018-06-23T22:32:51.787Z,42.60
2018-06-23T22:35:20.233Z,42.80
2018-06-23T22:37:48.599Z,43.00
2018-06-23T22:40:17.171Z,43.20
2018-06-23T22:42:45.512Z,43.50
2018-06-23T22:45:13.867Z,43.60
2018-06-23T22:47:42.211Z,43.70
2018-06-23T22:52:39.466Z,44.50
2018-06-23T22:55:08.725Z,43.80
2018-06-23T22:57:37.636Z,43.50
2018-06-23T23:00:11.037Z,43.20
2018-06-23T23:02:39.711Z,43.30
2018-06-23T23:05:08.463Z,43.50
2018-06-23T23:07:36.778Z,45.10
2018-06-23T23:10:05.672Z,45.10
2018-06-23T23:12:34.039Z,45.00
2018-06-23T23:15:02.503Z,44.90
2018-06-23T23:17:31.111Z,44.90
2018-06-23T23:19:59.455Z,44.80
2018-06-23T23:22:27.793Z,44.80
2018-06-23T23:24:56.154Z,44.80
2018-06-23T23:27:24.600Z,44.70
2018-06-23T23:29:52.971Z,45.10
2018-06-23T23:32:21.356Z,45.30
2018-06-23T23:34:49.643Z,45.40
2018-06-23T23:37:18.036Z,45.80
2018-06-23T23:39:46.370Z,46.00
2018-06-23T23:42:14.753Z,46.00
2018-06-23T23:44:43.185Z,46.10
2018-06-23T23:47:11.591Z,46.00
2018-06-23T23:49:39.955Z,46.20
2018-06-23T23:52:08.330Z,45.90
2018-06-23T23:54:36.669Z,46.10
2018-06-23T23:57:05.897Z,46.10
2018-06-23T23:59:34.228Z,46.10
